sensor_id;sensor_type;location;lat;lon;timestamp;temperature;humidity
74484;SHT31;62942;52.462;10.846;2022-12-18T00:00:41;-10.1;91.4
74484;SHT31;62942;52.462;10.846;2022-12-18T00:01:41;-10.1;91.5
74484;SHT31;62942;52.462;10.846;2022-12-18T00:02:51;-10.1;91.5
74484;SHT31;62942;52.462;10.846;2022-12-18T00:03:51;-10.1;91.6
74484;SHT31;62942;52.462;10.846;2022-12-18T00:05:01;-10.1;91.7
74484;SHT31;62942;52.462;10.846;2022-12-18T00:06:01;-10.1;91.8
74484;SHT31;62942;52.462;10.846;2022-12-18T00:07:11;-10.1;91.8
74484;SHT31;62942;52.462;10.846;2022-12-18T00:08:11;-10.1;91.8
74484;SHT31;62942;52.462;10.846;2022-12-18T00:09:21;-10.1;91.8
74484;SHT31;62942;52.462;10.846;2022-12-18T00:10:21;-10.1;91.8
74484;SHT31;62942;52.462;10.846;2022-12-18T00:11:31;-10.1;91.8
74484;SHT31;62942;52.462;10.846;2022-12-18T00:12:41;-10.1;91.7
74484;SHT31;62942;52.462;10.846;2022-12-18T00:13:51;-10.1;91.7
74484;SHT31;62942;52.462;10.846;2022-12-18T00:15:01;-10.1;91.8
74484;SHT31;62942;52.462;10.846;2022-12-18T00:16:01;-10.1;91.8
74484;SHT31;62942;52.462;10.846;2022-12-18T00:17:11;-10.1;91.8
74484;SHT31;62942;52.462;10.846;2022-12-18T00:18:11;-10.2;91.8
74484;SHT31;62942;52.462;10.846;2022-12-18T00:19:21;-10.2;91.6
74484;SHT31;62942;52.462;10.846;2022-12-18T00:20:21;-10.2;91.5
74484;SHT31;62942;52.462;10.846;2022-12-18T00:21:31;-10.3;91.4
74484;SHT31;62942;52.462;10.846;2022-12-18T00:22:31;-10.3;91.3
74484;SHT31;62942;52.462;10.846;2022-12-18T00:23:41;-10.3;91.2
74484;SHT31;62942;52.462;10.846;2022-12-18T00:24:41;-10.3;91.2
74484;SHT31;62942;52.462;10.846;2022-12-18T00:25:51;-10.4;91.1
74484;SHT31;62942;52.462;10.846;2022-12-18T00:26:51;-10.4;91
74484;SHT31;62942;52.462;10.846;2022-12-18T00:28:01;-10.5;90.9
74484;SHT31;62942;52.462;10.846;2022-12-18T00:29:03;-10.5;90.8
74484;SHT31;62942;52.462;10.846;2022-12-18T00:30:01;-10.5;90.7
74484;SHT31;62942;52.462;10.846;2022-12-18T00:31:11;-10.6;90.7
74484;SHT31;62942;52.462;10.846;2022-12-18T00:32:11;-10.6;90.7
74484;SHT31;62942;52.462;10.846;2022-12-18T00:33:21;-10.6;90.7
74484;SHT31;62942;52.462;10.846;2022-12-18T00:34:21;-10.6;90.7
74484;SHT31;62942;52.462;10.846;2022-12-18T00:35:31;-10.6;90.7
74484;SHT31;62942;52.462;10.846;2022-12-18T00:36:32;-10.6;90.8
74484;SHT31;62942;52.462;10.846;2022-12-18T00:37:31;-10.5;90.8
74484;SHT31;62942;52.462;10.846;2022-12-18T00:38:41;-10.6;90.9
74484;SHT31;62942;52.462;10.846;2022-12-18T00:39:41;-10.5;91
74484;SHT31;62942;52.462;10.846;2022-12-18T00:40:51;-10.5;91.2
74484;SHT31;62942;52.462;10.846;2022-12-18T00:42:01;-10.5;91.2
74484;SHT31;62942;52.462;10.846;2022-12-18T00:43:01;-10.5;91.3
74484;SHT31;62942;52.462;10.846;2022-12-18T00:44:01;-10.5;91.4
74484;SHT31;62942;52.462;10.846;2022-12-18T00:45:11;-10.4;91.4
74484;SHT31;62942;52.462;10.846;2022-12-18T00:46:11;-10.5;91.4
74484;SHT31;62942;52.462;10.846;2022-12-18T00:47:11;-10.4;91.4
74484;SHT31;62942;52.462;10.846;2022-12-18T00:48:21;-10.4;91.4
74484;SHT31;62942;52.462;10.846;2022-12-18T00:49:21;-10.4;91.5
74484;SHT31;62942;52.462;10.846;2022-12-18T00:50:21;-10.4;91.6
74484;SHT31;62942;52.462;10.846;2022-12-18T00:51:31;-10.3;91.7
74484;SHT31;62942;52.462;10.846;2022-12-18T00:52:41;-10.3;91.7
74484;SHT31;62942;52.462;10.846;2022-12-18T00:53:51;-10.4;91.6
74484;SHT31;62942;52.462;10.846;2022-12-18T00:55:01;-10.4;91.5
74484;SHT31;62942;52.462;10.846;2022-12-18T00:56:01;-10.4;91.4
74484;SHT31;62942;52.462;10.846;2022-12-18T00:57:01;-10.4;91.3
74484;SHT31;62942;52.462;10.846;2022-12-18T00:58:01;-10.4;91.1
74484;SHT31;62942;52.462;10.846;2022-12-18T00:59:11;-10.4;91
74484;SHT31;62942;52.462;10.846;2022-12-18T01:00:21;-10.5;90.9
74484;SHT31;62942;52.462;10.846;2022-12-18T01:01:31;-10.5;90.9
74484;SHT31;62942;52.462;10.846;2022-12-18T01:02:42;-10.5;90.8
74484;SHT31;62942;52.462;10.846;2022-12-18T01:03:41;-10.5;90.8
74484;SHT31;62942;52.462;10.846;2022-12-18T01:04:41;-10.5;90.8
74484;SHT31;62942;52.462;10.846;2022-12-18T01:05:51;-10.6;90.8
74484;SHT31;62942;52.462;10.846;2022-12-18T01:07:01;-10.6;90.8
74484;SHT31;62942;52.462;10.846;2022-12-18T01:08:01;-10.6;90.8
74484;SHT31;62942;52.462;10.846;2022-12-18T01:09:01;-10.6;90.8
74484;SHT31;62942;52.462;10.846;2022-12-18T01:10:11;-10.6;90.7
74484;SHT31;62942;52.462;10.846;2022-12-18T01:11:21;-10.6;90.7
74484;SHT31;62942;52.462;10.846;2022-12-18T01:12:31;-10.6;90.8
74484;SHT31;62942;52.462;10.846;2022-12-18T01:13:31;-10.6;90.8
74484;SHT31;62942;52.462;10.846;2022-12-18T01:14:41;-10.6;90.8
74484;SHT31;62942;52.462;10.846;2022-12-18T01:15:47;-10.6;90.9
74484;SHT31;62942;52.462;10.846;2022-12-18T01:16:41;-10.6;91
74484;SHT31;62942;52.462;10.846;2022-12-18T01:17:51;-10.6;91.2
74484;SHT31;62942;52.462;10.846;2022-12-18T01:18:51;-10.6;91.2
74484;SHT31;62942;52.462;10.846;2022-12-18T01:20:01;-10.6;91.2
74484;SHT31;62942;52.462;10.846;2022-12-18T01:21:04;-10.6;91.1
74484;SHT31;62942;52.462;10.846;2022-12-18T01:22:11;-10.7;91.1
74484;SHT31;62942;52.462;10.846;2022-12-18T01:23:11;-10.6;91
74484;SHT31;62942;52.462;10.846;2022-12-18T01:24:21;-10.7;91
74484;SHT31;62942;52.462;10.846;2022-12-18T01:25:21;-10.7;91
74484;SHT31;62942;52.462;10.846;2022-12-18T01:26:21;-10.7;90.9
74484;SHT31;62942;52.462;10.846;2022-12-18T01:27:31;-10.6;91
74484;SHT31;62942;52.462;10.846;2022-12-18T01:28:41;-10.6;91.2
74484;SHT31;62942;52.462;10.846;2022-12-18T01:29:51;-10.6;91.4
74484;SHT31;62942;52.462;10.846;2022-12-18T01:30:51;-10.5;91.6
74484;SHT31;62942;52.462;10.846;2022-12-18T01:32:01;-10.5;91.6
74484;SHT31;62942;52.462;10.846;2022-12-18T01:33:01;-10.5;91.6
74484;SHT31;62942;52.462;10.846;2022-12-18T01:34:11;-10.5;91.6
74484;SHT31;62942;52.462;10.846;2022-12-18T01:35:11;-10.4;91.6
74484;SHT31;62942;52.462;10.846;2022-12-18T01:36:14;-10.4;91.5
74484;SHT31;62942;52.462;10.846;2022-12-18T01:37:11;-10.4;91.4
74484;SHT31;62942;52.462;10.846;2022-12-18T01:38:21;-10.4;91.4
74484;SHT31;62942;52.462;10.846;2022-12-18T01:39:31;-10.5;91.3
74484;SHT31;62942;52.462;10.846;2022-12-18T01:40:31;-10.5;91.2
74484;SHT31;62942;52.462;10.846;2022-12-18T01:41:31;-10.5;91.1
74484;SHT31;62942;52.462;10.846;2022-12-18T01:42:41;-10.5;91
74484;SHT31;62942;52.462;10.846;2022-12-18T01:43:43;-10.5;90.9
74484;SHT31;62942;52.462;10.846;2022-12-18T01:44:56;-10.5;90.9
74484;SHT31;62942;52.462;10.846;2022-12-18T01:45:51;-10.5;90.9
74484;SHT31;62942;52.462;10.846;2022-12-18T01:46:51;-10.6;90.9
74484;SHT31;62942;52.462;10.846;2022-12-18T01:48:01;-10.6;90.8
74484;SHT31;62942;52.462;10.846;2022-12-18T01:49:01;-10.6;90.8
74484;SHT31;62942;52.462;10.846;2022-12-18T01:50:02;-10.6;90.7
74484;SHT31;62942;52.462;10.846;2022-12-18T01:51:11;-10.7;90.7
74484;SHT31;62942;52.462;10.846;2022-12-18T01:52:11;-10.7;90.6
74484;SHT31;62942;52.462;10.846;2022-12-18T01:53:21;-10.7;90.5
74484;SHT31;62942;52.462;10.846;2022-12-18T01:54:21;-10.7;90.5
74484;SHT31;62942;52.462;10.846;2022-12-18T01:55:32;-10.7;90.5
74484;SHT31;62942;52.462;10.846;2022-12-18T01:56:31;-10.7;90.5
74484;SHT31;62942;52.462;10.846;2022-12-18T01:57:31;-10.7;90.4
74484;SHT31;62942;52.462;10.846;2022-12-18T01:58:43;-10.7;90.6
74484;SHT31;62942;52.462;10.846;2022-12-18T01:59:52;-10.7;90.7
74484;SHT31;62942;52.462;10.846;2022-12-18T02:01:01;-10.6;90.8
74484;SHT31;62942;52.462;10.846;2022-12-18T02:02:11;-10.6;91
74484;SHT31;62942;52.462;10.846;2022-12-18T02:03:11;-10.6;91.1
74484;SHT31;62942;52.462;10.846;2022-12-18T02:04:18;-10.6;91.1
74484;SHT31;62942;52.462;10.846;2022-12-18T02:05:22;-10.6;91.2
74484;SHT31;62942;52.462;10.846;2022-12-18T02:06:21;-10.5;91.2
74484;SHT31;62942;52.462;10.846;2022-12-18T02:07:33;-10.4;91.2
74484;SHT31;62942;52.462;10.846;2022-12-18T02:08:32;-10.4;91.2
74484;SHT31;62942;52.462;10.846;2022-12-18T02:09:42;-10.4;91.3
74484;SHT31;62942;52.462;10.846;2022-12-18T02:10:53;-10.4;91.3
74484;SHT31;62942;52.462;10.846;2022-12-18T02:12:03;-10.3;91.3
74484;SHT31;62942;52.462;10.846;2022-12-18T02:13:02;-10.3;91.2
74484;SHT31;62942;52.462;10.846;2022-12-18T02:14:04;-10.4;91.3
74484;SHT31;62942;52.462;10.846;2022-12-18T02:15:13;-10.3;91.2
74484;SHT31;62942;52.462;10.846;2022-12-18T02:16:13;-10.3;91.2
74484;SHT31;62942;52.462;10.846;2022-12-18T02:17:21;-10.3;91.2
74484;SHT31;62942;52.462;10.846;2022-12-18T02:18:21;-10.3;91.2
74484;SHT31;62942;52.462;10.846;2022-12-18T02:19:41;-10.3;91.1
74484;SHT31;62942;52.462;10.846;2022-12-18T02:20:44;-10.3;91.1
74484;SHT31;62942;52.462;10.846;2022-12-18T02:21:52;-10.3;91.1
74484;SHT31;62942;52.462;10.846;2022-12-18T02:22:56;-10.3;91.1
74484;SHT31;62942;52.462;10.846;2022-12-18T02:24:04;-10.2;91.2
74484;SHT31;62942;52.462;10.846;2022-12-18T02:25:05;-10.3;91.2
74484;SHT31;62942;52.462;10.846;2022-12-18T02:26:02;-10.2;91.2
74484;SHT31;62942;52.462;10.846;2022-12-18T02:27:01;-10.2;91.3
74484;SHT31;62942;52.462;10.846;2022-12-18T02:28:11;-10.2;91.3
74484;SHT31;62942;52.462;10.846;2022-12-18T02:29:12;-10.2;91.4
74484;SHT31;62942;52.462;10.846;2022-12-18T02:30:20;-10.2;91.4
74484;SHT31;62942;52.462;10.846;2022-12-18T02:31:22;-10.2;91.4
74484;SHT31;62942;52.462;10.846;2022-12-18T02:32:22;-10.2;91.4
74484;SHT31;62942;52.462;10.846;2022-12-18T02:33:30;-10.3;91.4
74484;SHT31;62942;52.462;10.846;2022-12-18T02:34:41;-10.3;91.2
74484;SHT31;62942;52.462;10.846;2022-12-18T02:35:41;-10.4;91.1
74484;SHT31;62942;52.462;10.846;2022-12-18T02:36:51;-10.4;90.8
74484;SHT31;62942;52.462;10.846;2022-12-18T02:38:01;-10.5;90.6
74484;SHT31;62942;52.462;10.846;2022-12-18T02:39:00;-10.5;90.6
74484;SHT31;62942;52.462;10.846;2022-12-18T02:40:01;-10.5;90.6
74484;SHT31;62942;52.462;10.846;2022-12-18T02:41:11;-10.5;90.7
74484;SHT31;62942;52.462;10.846;2022-12-18T02:42:20;-10.5;90.8
74484;SHT31;62942;52.462;10.846;2022-12-18T02:43:20;-10.4;90.9
74484;SHT31;62942;52.462;10.846;2022-12-18T02:44:20;-10.4;91
74484;SHT31;62942;52.462;10.846;2022-12-18T02:45:30;-10.4;91.2
74484;SHT31;62942;52.462;10.846;2022-12-18T02:46:31;-10.3;91.2
74484;SHT31;62942;52.462;10.846;2022-12-18T02:47:32;-10.3;91.2
74484;SHT31;62942;52.462;10.846;2022-12-18T02:48:40;-10.3;91.2
74484;SHT31;62942;52.462;10.846;2022-12-18T02:49:44;-10.3;91.2
74484;SHT31;62942;52.462;10.846;2022-12-18T02:50:41;-10.3;91.2
74484;SHT31;62942;52.462;10.846;2022-12-18T02:51:52;-10.3;91.3
74484;SHT31;62942;52.462;10.846;2022-12-18T02:53:03;-10.3;91.3
74484;SHT31;62942;52.462;10.846;2022-12-18T02:54:02;-10.4;91.2
74484;SHT31;62942;52.462;10.846;2022-12-18T02:55:13;-10.4;91.1
74484;SHT31;62942;52.462;10.846;2022-12-18T02:56:21;-10.4;90.8
74484;SHT31;62942;52.462;10.846;2022-12-18T02:57:33;-10.5;90.7
74484;SHT31;62942;52.462;10.846;2022-12-18T02:58:32;-10.5;90.6
74484;SHT31;62942;52.462;10.846;2022-12-18T02:59:31;-10.5;90.6
74484;SHT31;62942;52.462;10.846;2022-12-18T03:00:31;-10.5;90.6
74484;SHT31;62942;52.462;10.846;2022-12-18T03:01:32;-10.6;90.5
74484;SHT31;62942;52.462;10.846;2022-12-18T03:02:41;-10.6;90.5
74484;SHT31;62942;52.462;10.846;2022-12-18T03:03:41;-10.6;90.5
74484;SHT31;62942;52.462;10.846;2022-12-18T03:04:52;-10.6;90.5
74484;SHT31;62942;52.462;10.846;2022-12-18T03:05:51;-10.7;90.4
74484;SHT31;62942;52.462;10.846;2022-12-18T03:06:51;-10.7;90.3
74484;SHT31;62942;52.462;10.846;2022-12-18T03:08:02;-10.7;90.3
74484;SHT31;62942;52.462;10.846;2022-12-18T03:09:01;-10.7;90.3
74484;SHT31;62942;52.462;10.846;2022-12-18T03:10:00;-10.7;90.3
74484;SHT31;62942;52.462;10.846;2022-12-18T03:11:11;-10.7;90.3
74484;SHT31;62942;52.462;10.846;2022-12-18T03:12:21;-10.7;90.3
74484;SHT31;62942;52.462;10.846;2022-12-18T03:13:22;-10.7;90.4
74484;SHT31;62942;52.462;10.846;2022-12-18T03:14:20;-10.7;90.5
74484;SHT31;62942;52.462;10.846;2022-12-18T03:15:31;-10.7;90.6
74484;SHT31;62942;52.462;10.846;2022-12-18T03:16:40;-10.7;90.6
74484;SHT31;62942;52.462;10.846;2022-12-18T03:17:41;-10.7;90.7
74484;SHT31;62942;52.462;10.846;2022-12-18T03:18:51;-10.7;90.7
74484;SHT31;62942;52.462;10.846;2022-12-18T03:19:51;-10.7;90.8
74484;SHT31;62942;52.462;10.846;2022-12-18T03:21:02;-10.7;90.7
74484;SHT31;62942;52.462;10.846;2022-12-18T03:22:01;-10.7;90.8
74484;SHT31;62942;52.462;10.846;2022-12-18T03:23:11;-10.7;90.9
74484;SHT31;62942;52.462;10.846;2022-12-18T03:24:11;-10.7;90.9
74484;SHT31;62942;52.462;10.846;2022-12-18T03:25:11;-10.7;91
74484;SHT31;62942;52.462;10.846;2022-12-18T03:26:22;-10.7;91
74484;SHT31;62942;52.462;10.846;2022-12-18T03:27:20;-10.7;90.9
74484;SHT31;62942;52.462;10.846;2022-12-18T03:28:21;-10.7;90.8
74484;SHT31;62942;52.462;10.846;2022-12-18T03:29:31;-10.7;90.7
74484;SHT31;62942;52.462;10.846;2022-12-18T03:30:41;-10.8;90.6
74484;SHT31;62942;52.462;10.846;2022-12-18T03:31:40;-10.8;90.5
74484;SHT31;62942;52.462;10.846;2022-12-18T03:32:52;-10.8;90.5
74484;SHT31;62942;52.462;10.846;2022-12-18T03:33:51;-10.9;90.5
74484;SHT31;62942;52.462;10.846;2022-12-18T03:34:51;-10.9;90.4
74484;SHT31;62942;52.462;10.846;2022-12-18T03:36:00;-10.9;90.5
74484;SHT31;62942;52.462;10.846;2022-12-18T03:37:01;-10.9;90.5
74484;SHT31;62942;52.462;10.846;2022-12-18T03:38:10;-10.9;90.5
74484;SHT31;62942;52.462;10.846;2022-12-18T03:39:10;-11;90.6
74484;SHT31;62942;52.462;10.846;2022-12-18T03:40:20;-11;90.6
74484;SHT31;62942;52.462;10.846;2022-12-18T03:41:23;-11;90.5
74484;SHT31;62942;52.462;10.846;2022-12-18T03:42:32;-11;90.6
74484;SHT31;62942;52.462;10.846;2022-12-18T03:43:34;-10.9;90.7
74484;SHT31;62942;52.462;10.846;2022-12-18T03:44:41;-10.9;90.7
74484;SHT31;62942;52.462;10.846;2022-12-18T03:45:41;-10.9;90.7
74484;SHT31;62942;52.462;10.846;2022-12-18T03:46:41;-10.9;90.7
74484;SHT31;62942;52.462;10.846;2022-12-18T03:47:53;-10.9;90.9
74484;SHT31;62942;52.462;10.846;2022-12-18T03:48:51;-10.8;90.9
74484;SHT31;62942;52.462;10.846;2022-12-18T03:49:53;-10.8;90.8
74484;SHT31;62942;52.462;10.846;2022-12-18T03:51:01;-10.8;90.8
74484;SHT31;62942;52.462;10.846;2022-12-18T03:52:01;-10.8;90.9
74484;SHT31;62942;52.462;10.846;2022-12-18T03:53:14;-10.8;90.9
74484;SHT31;62942;52.462;10.846;2022-12-18T03:54:10;-10.8;90.8
74484;SHT31;62942;52.462;10.846;2022-12-18T03:55:20;-10.8;90.7
74484;SHT31;62942;52.462;10.846;2022-12-18T03:56:20;-10.8;90.7
74484;SHT31;62942;52.462;10.846;2022-12-18T03:57:31;-10.8;90.7
74484;SHT31;62942;52.462;10.846;2022-12-18T03:58:31;-10.8;90.7
74484;SHT31;62942;52.462;10.846;2022-12-18T03:59:30;-10.8;90.7
74484;SHT31;62942;52.462;10.846;2022-12-18T04:00:40;-10.8;90.7
74484;SHT31;62942;52.462;10.846;2022-12-18T04:01:50;-10.8;90.6
74484;SHT31;62942;52.462;10.846;2022-12-18T04:03:00;-10.8;90.6
74484;SHT31;62942;52.462;10.846;2022-12-18T04:04:10;-10.8;90.7
74484;SHT31;62942;52.462;10.846;2022-12-18T04:05:20;-10.8;90.8
74484;SHT31;62942;52.462;10.846;2022-12-18T04:06:23;-10.8;90.9
74484;SHT31;62942;52.462;10.846;2022-12-18T04:07:30;-10.8;90.9
74484;SHT31;62942;52.462;10.846;2022-12-18T04:08:40;-10.8;90.9
74484;SHT31;62942;52.462;10.846;2022-12-18T04:09:50;-10.8;90.9
74484;SHT31;62942;52.462;10.846;2022-12-18T04:10:50;-10.8;90.9
74484;SHT31;62942;52.462;10.846;2022-12-18T04:11:51;-10.8;90.9
74484;SHT31;62942;52.462;10.846;2022-12-18T04:12:50;-10.8;91
74484;SHT31;62942;52.462;10.846;2022-12-18T04:14:00;-10.8;90.9
74484;SHT31;62942;52.462;10.846;2022-12-18T04:15:00;-10.8;90.8
74484;SHT31;62942;52.462;10.846;2022-12-18T04:16:00;-10.8;90.8
74484;SHT31;62942;52.462;10.846;2022-12-18T04:17:10;-10.8;90.8
74484;SHT31;62942;52.462;10.846;2022-12-18T04:18:10;-10.9;90.8
74484;SHT31;62942;52.462;10.846;2022-12-18T04:19:20;-10.8;90.9
74484;SHT31;62942;52.462;10.846;2022-12-18T04:20:20;-10.8;91
74484;SHT31;62942;52.462;10.846;2022-12-18T04:21:30;-10.9;91
74484;SHT31;62942;52.462;10.846;2022-12-18T04:22:41;-10.9;91
74484;SHT31;62942;52.462;10.846;2022-12-18T04:23:50;-11;90.9
74484;SHT31;62942;52.462;10.846;2022-12-18T04:25:00;-11;90.7
74484;SHT31;62942;52.462;10.846;2022-12-18T04:26:00;-11;90.5
74484;SHT31;62942;52.462;10.846;2022-12-18T04:27:00;-11.1;90.3
74484;SHT31;62942;52.462;10.846;2022-12-18T04:28:10;-11.1;90.3
74484;SHT31;62942;52.462;10.846;2022-12-18T04:29:10;-11.1;90.4
74484;SHT31;62942;52.462;10.846;2022-12-18T04:30:20;-11.1;90.4
74484;SHT31;62942;52.462;10.846;2022-12-18T04:31:20;-11.1;90.4
74484;SHT31;62942;52.462;10.846;2022-12-18T04:32:30;-11.1;90.5
74484;SHT31;62942;52.462;10.846;2022-12-18T04:33:40;-11.1;90.6
74484;SHT31;62942;52.462;10.846;2022-12-18T04:34:50;-11;90.7
74484;SHT31;62942;52.462;10.846;2022-12-18T04:35:50;-11;90.7
74484;SHT31;62942;52.462;10.846;2022-12-18T04:36:50;-11;90.7
74484;SHT31;62942;52.462;10.846;2022-12-18T04:38:00;-11;90.8
74484;SHT31;62942;52.462;10.846;2022-12-18T04:39:10;-10.9;90.9
74484;SHT31;62942;52.462;10.846;2022-12-18T04:40:11;-10.9;91
74484;SHT31;62942;52.462;10.846;2022-12-18T04:41:20;-10.9;91
74484;SHT31;62942;52.462;10.846;2022-12-18T04:42:30;-10.9;91.1
74484;SHT31;62942;52.462;10.846;2022-12-18T04:43:40;-10.9;91.1
74484;SHT31;62942;52.462;10.846;2022-12-18T04:44:40;-10.9;91
74484;SHT31;62942;52.462;10.846;2022-12-18T04:45:40;-11;90.9
74484;SHT31;62942;52.462;10.846;2022-12-18T04:46:50;-11;90.7
74484;SHT31;62942;52.462;10.846;2022-12-18T04:47:50;-11;90.5
74484;SHT31;62942;52.462;10.846;2022-12-18T04:49:00;-11;90.5
74484;SHT31;62942;52.462;10.846;2022-12-18T04:50:00;-11;90.5
74484;SHT31;62942;52.462;10.846;2022-12-18T04:51:10;-11;90.5
74484;SHT31;62942;52.462;10.846;2022-12-18T04:52:20;-11.1;90.5
74484;SHT31;62942;52.462;10.846;2022-12-18T04:53:30;-11.1;90.4
74484;SHT31;62942;52.462;10.846;2022-12-18T04:54:40;-11.1;90.4
74484;SHT31;62942;52.462;10.846;2022-12-18T04:55:40;-11.1;90.3
74484;SHT31;62942;52.462;10.846;2022-12-18T04:56:40;-11.2;90.3
74484;SHT31;62942;52.462;10.846;2022-12-18T04:57:50;-11.2;90.2
74484;SHT31;62942;52.462;10.846;2022-12-18T04:59:00;-11.2;90.2
74484;SHT31;62942;52.462;10.846;2022-12-18T05:00:00;-11.2;90.1
74484;SHT31;62942;52.462;10.846;2022-12-18T05:01:11;-11.2;90
74484;SHT31;62942;52.462;10.846;2022-12-18T05:02:10;-11.3;90
74484;SHT31;62942;52.462;10.846;2022-12-18T05:03:10;-11.2;90.1
74484;SHT31;62942;52.462;10.846;2022-12-18T05:04:20;-11.2;90.1
74484;SHT31;62942;52.462;10.846;2022-12-18T05:05:20;-11.2;90.2
74484;SHT31;62942;52.462;10.846;2022-12-18T05:06:30;-11.2;90.2
74484;SHT31;62942;52.462;10.846;2022-12-18T05:07:40;-11.2;90.2
74484;SHT31;62942;52.462;10.846;2022-12-18T05:08:50;-11.2;90.3
74484;SHT31;62942;52.462;10.846;2022-12-18T05:09:50;-11.2;90.3
74484;SHT31;62942;52.462;10.846;2022-12-18T05:10:57;-11.2;90.4
74484;SHT31;62942;52.462;10.846;2022-12-18T05:12:00;-11.1;90.5
74484;SHT31;62942;52.462;10.846;2022-12-18T05:13:00;-11.1;90.5
74484;SHT31;62942;52.462;10.846;2022-12-18T05:14:00;-11.1;90.5
74484;SHT31;62942;52.462;10.846;2022-12-18T05:15:10;-11.1;90.6
74484;SHT31;62942;52.462;10.846;2022-12-18T05:16:11;-11;90.7
74484;SHT31;62942;52.462;10.846;2022-12-18T05:17:20;-11;90.8
74484;SHT31;62942;52.462;10.846;2022-12-18T05:18:30;-11;91
74484;SHT31;62942;52.462;10.846;2022-12-18T05:19:40;-11;91.1
74484;SHT31;62942;52.462;10.846;2022-12-18T05:20:50;-10.9;91.1
74484;SHT31;62942;52.462;10.846;2022-12-18T05:22:00;-11;91.1
74484;SHT31;62942;52.462;10.846;2022-12-18T05:23:00;-10.9;91.1
74484;SHT31;62942;52.462;10.846;2022-12-18T05:24:10;-10.9;91.3
74484;SHT31;62942;52.462;10.846;2022-12-18T05:25:10;-10.9;91.2
74484;SHT31;62942;52.462;10.846;2022-12-18T05:26:20;-10.8;91.1
74484;SHT31;62942;52.462;10.846;2022-12-18T05:27:30;-10.8;91.2
74484;SHT31;62942;52.462;10.846;2022-12-18T05:28:40;-10.8;91.2
74484;SHT31;62942;52.462;10.846;2022-12-18T05:29:50;-10.8;91.2
74484;SHT31;62942;52.462;10.846;2022-12-18T05:30:50;-10.8;91.2
74484;SHT31;62942;52.462;10.846;2022-12-18T05:31:50;-10.7;91.2
74484;SHT31;62942;52.462;10.846;2022-12-18T05:33:00;-10.7;91.1
74484;SHT31;62942;52.462;10.846;2022-12-18T05:34:00;-10.7;91.1
74484;SHT31;62942;52.462;10.846;2022-12-18T05:35:12;-10.7;91
74484;SHT31;62942;52.462;10.846;2022-12-18T05:36:10;-10.7;91
74484;SHT31;62942;52.462;10.846;2022-12-18T05:37:10;-10.7;91
74484;SHT31;62942;52.462;10.846;2022-12-18T05:38:20;-10.7;91
74484;SHT31;62942;52.462;10.846;2022-12-18T05:39:20;-10.7;91.3
74484;SHT31;62942;52.462;10.846;2022-12-18T05:40:20;-10.7;91.6
74484;SHT31;62942;52.462;10.846;2022-12-18T05:41:30;-10.6;91.5
74484;SHT31;62942;52.462;10.846;2022-12-18T05:42:30;-10.6;91.7
74484;SHT31;62942;52.462;10.846;2022-12-18T05:43:40;-10.5;91.9
74484;SHT31;62942;52.462;10.846;2022-12-18T05:44:40;-10.5;91.7
74484;SHT31;62942;52.462;10.846;2022-12-18T05:45:40;-10.5;91.7
74484;SHT31;62942;52.462;10.846;2022-12-18T05:46:50;-10.5;91.7
74484;SHT31;62942;52.462;10.846;2022-12-18T05:47:50;-10.4;91.7
74484;SHT31;62942;52.462;10.846;2022-12-18T05:48:50;-10.4;91.7
74484;SHT31;62942;52.462;10.846;2022-12-18T05:50:00;-10.4;91.7
74484;SHT31;62942;52.462;10.846;2022-12-18T05:51:04;-10.4;91.8
74484;SHT31;62942;52.462;10.846;2022-12-18T05:52:10;-10.4;91.7
74484;SHT31;62942;52.462;10.846;2022-12-18T05:53:11;-10.4;91.7
74484;SHT31;62942;52.462;10.846;2022-12-18T05:54:20;-10.4;91.6
74484;SHT31;62942;52.462;10.846;2022-12-18T05:55:20;-10.4;91.5
74484;SHT31;62942;52.462;10.846;2022-12-18T05:56:21;-10.4;91.4
74484;SHT31;62942;52.462;10.846;2022-12-18T05:57:30;-10.4;91.2
74484;SHT31;62942;52.462;10.846;2022-12-18T05:58:30;-10.4;91.1
74484;SHT31;62942;52.462;10.846;2022-12-18T05:59:30;-10.4;91
74484;SHT31;62942;52.462;10.846;2022-12-18T06:00:30;-10.4;91
74484;SHT31;62942;52.462;10.846;2022-12-18T06:01:40;-10.4;91
74484;SHT31;62942;52.462;10.846;2022-12-18T06:02:50;-10.4;90.9
74484;SHT31;62942;52.462;10.846;2022-12-18T06:04:00;-10.5;90.8
74484;SHT31;62942;52.462;10.846;2022-12-18T06:05:00;-10.4;90.9
74484;SHT31;62942;52.462;10.846;2022-12-18T06:06:14;-10.4;90.8
74484;SHT31;62942;52.462;10.846;2022-12-18T06:07:20;-10.5;90.9
74484;SHT31;62942;52.462;10.846;2022-12-18T06:08:30;-10.5;90.9
74484;SHT31;62942;52.462;10.846;2022-12-18T06:09:40;-10.5;90.8
74484;SHT31;62942;52.462;10.846;2022-12-18T06:10:40;-10.5;90.9
74484;SHT31;62942;52.462;10.846;2022-12-18T06:11:40;-10.5;90.9
74484;SHT31;62942;52.462;10.846;2022-12-18T06:12:40;-10.5;90.9
74484;SHT31;62942;52.462;10.846;2022-12-18T06:13:50;-10.5;90.9
74484;SHT31;62942;52.462;10.846;2022-12-18T06:14:50;-10.5;90.9
74484;SHT31;62942;52.462;10.846;2022-12-18T06:15:50;-10.5;90.9
74484;SHT31;62942;52.462;10.846;2022-12-18T06:17:00;-10.5;91
74484;SHT31;62942;52.462;10.846;2022-12-18T06:18:10;-10.5;90.9
74484;SHT31;62942;52.462;10.846;2022-12-18T06:19:13;-10.5;90.9
74484;SHT31;62942;52.462;10.846;2022-12-18T06:20:20;-10.6;90.8
74484;SHT31;62942;52.462;10.846;2022-12-18T06:21:20;-10.6;90.7
74484;SHT31;62942;52.462;10.846;2022-12-18T06:22:30;-10.6;90.7
74484;SHT31;62942;52.462;10.846;2022-12-18T06:23:30;-10.6;90.6
74484;SHT31;62942;52.462;10.846;2022-12-18T06:24:40;-10.6;90.7
74484;SHT31;62942;52.462;10.846;2022-12-18T06:25:40;-10.6;90.7
74484;SHT31;62942;52.462;10.846;2022-12-18T06:26:50;-10.6;90.7
74484;SHT31;62942;52.462;10.846;2022-12-18T06:28:00;-10.6;90.7
74484;SHT31;62942;52.462;10.846;2022-12-18T06:29:00;-10.6;90.6
74484;SHT31;62942;52.462;10.846;2022-12-18T06:30:00;-10.6;90.5
74484;SHT31;62942;52.462;10.846;2022-12-18T06:31:10;-10.7;90.4
74484;SHT31;62942;52.462;10.846;2022-12-18T06:32:10;-10.7;90.3
74484;SHT31;62942;52.462;10.846;2022-12-18T06:33:10;-10.7;90.3
74484;SHT31;62942;52.462;10.846;2022-12-18T06:34:20;-10.7;90.4
74484;SHT31;62942;52.462;10.846;2022-12-18T06:35:20;-10.7;90.5
74484;SHT31;62942;52.462;10.846;2022-12-18T06:36:20;-10.7;90.5
74484;SHT31;62942;52.462;10.846;2022-12-18T06:37:20;-10.7;90.5
74484;SHT31;62942;52.462;10.846;2022-12-18T06:38:20;-10.7;90.5
74484;SHT31;62942;52.462;10.846;2022-12-18T06:39:30;-10.8;90.5
74484;SHT31;62942;52.462;10.846;2022-12-18T06:40:30;-10.8;90.5
74484;SHT31;62942;52.462;10.846;2022-12-18T06:41:30;-10.8;90.4
74484;SHT31;62942;52.462;10.846;2022-12-18T06:42:40;-10.8;90.3
74484;SHT31;62942;52.462;10.846;2022-12-18T06:43:40;-10.8;90.3
74484;SHT31;62942;52.462;10.846;2022-12-18T06:44:50;-10.9;90.3
74484;SHT31;62942;52.462;10.846;2022-12-18T06:45:50;-10.9;90.3
74484;SHT31;62942;52.462;10.846;2022-12-18T06:47:00;-10.9;90.4
74484;SHT31;62942;52.462;10.846;2022-12-18T06:48:10;-10.9;90.4
74484;SHT31;62942;52.462;10.846;2022-12-18T06:49:20;-10.9;90.3
74484;SHT31;62942;52.462;10.846;2022-12-18T06:50:30;-11;90.3
74484;SHT31;62942;52.462;10.846;2022-12-18T06:51:30;-10.9;90.3
74484;SHT31;62942;52.462;10.846;2022-12-18T06:52:40;-11;90.2